Warning: fopen(/var/www/metroair/shared/private/wxdata/metar/AVWX/metar_KMDW): failed to open stream: Permission denied in /var/www/metroair/shared/private/library/orig_library/lib_airport.php on line 346

Warning: fwrite() expects parameter 1 to be resource, boolean given in /var/www/metroair/shared/private/library/orig_library/lib_airport.php on line 347

Warning: fclose() expects parameter 1 to be resource, boolean given in /var/www/metroair/shared/private/library/orig_library/lib_airport.php on line 348

Warning: fopen(/var/www/metroair/shared/private/wxdata/TAF/AVWX/taf_KMDW): failed to open stream: Permission denied in /var/www/metroair/shared/private/library/orig_library/lib_airport.php on line 533

Warning: fwrite() expects parameter 1 to be resource, boolean given in /var/www/metroair/shared/private/library/orig_library/lib_airport.php on line 534

Warning: fclose() expects parameter 1 to be resource, boolean given in /var/www/metroair/shared/private/library/orig_library/lib_airport.php on line 535
Featured Flight

MET1453 - Detroit to Chicago

Boeing 737-200
711MT
0 hrs 40 mins
199 nm
Scheduled - Daily

Bid/PiRep Status

Bid was submitted on Dec 27 2016.

PiRep # 74493: Approved by Dave Nichols on December 30th, 2016 2:54 UTC

Departure

Departing from
Detroit (DTW)
Departure gate
Scheduled Departure
GMT 1950
Local 1550
METAR KDTW 260453Z 29007KT 8SM -SN OVC040 M04/M10 A2999 RMK AO2 SLP163 P0000 T10391100 401391039 $
TAF KDTW 260306Z 2603/2706 27012G18KT P6SM SCT025 BKN040 FM261000 23011KT P6SM SCT150 BKN250 FM261700 22018G30KT P6SM SCT050 BKN070 FM270000 20014KT P6SM SCT070
  • No charts available

Arrival

Arriving at
Chicago (MDW)
Arrival gate
Scheduled Arrival
GMT 2030
Local 1530
METAR KMDW 260453Z 28007KT 10SM SCT180 BKN250 M03/M11 A3005 RMK AO2 SLP190 T10331111
TAF KMDW 260307Z 2603/2624 28008KT P6SM BKN250 FM261000 21007KT P6SM BKN090 FM261400 20016G24KT P6SM BKN060 FM261700 21018G28KT P6SM SCT060 FM262000 23022G36KT P6SM FEW060

Route Map

Planning Resources

DTW JXN LFD GSH CGT MDW
JXN V116 LEROY GSH
CRL.BENJO.GIJ.
CRL-BENJO-GIJ
PALACE3 LEROY GSH GSH3
Route:
OFP Layout:
Units:
Detailed Navlog:
ETOPS Planning:
Plan Stepclimbs:
Runway Analysis:
Include NOTAMS:
FIR NOTAMS:
Flight Maps:

Popularity

Hub Current Bids PiReps this month Total PiReps
KMCI 0 0 1
KLAX 0 0 1
KBOS 0 0 0